Latest tweets that mention www.meteo.dz

lennel yanick

METAR EBLG 220520Z 20015KT 3000 -DZ SCT005 BKN006 10/09 Q1022 TEMPO 3000 RADZ BKN006= https://t.co/DUOQ9L6tiv via @meteo_mobilehttps://twitter.com/lennely

1 month ago

سيف ☪

RT @VisitDubai_FR: Et si la météo était ce que vous préfériez en hiver ? #VisitDubai https://t.co/zEZvKwYULj https://t.co/aEwI55kaHphttps://twitter.com/seifou_dz

1 month ago

zaatar nadir

RT @VitaDolc: Des fortes pluies vont s'abattre à partir de ce soir sur plusieurs régions au centre et à l'est du pays. #Algerie #Meteo #dz …https://twitter.com/NadirZaatar

1 month ago

Latest tweets that mention “Météo DZ”

lennel yanick

METAR EBLG 220520Z 20015KT 3000 -DZ SCT005 BKN006 10/09 Q1022 TEMPO 3000 RADZ BKN006= https://t.co/DUOQ9L6tiv via @meteo_mobile

https://twitter.com/lennely

1 month ago

سيف ☪

RT @VisitDubai_FR: Et si la météo était ce que vous préfériez en hiver ? #VisitDubai https://t.co/zEZvKwYULj https://t.co/aEwI55kaHp

https://twitter.com/seifou_dz

1 month ago

zaatar nadir

RT @VitaDolc: Des fortes pluies vont s'abattre à partir de ce soir sur plusieurs régions au centre et à l'est du pays. #Algerie #Meteo #dz …

https://twitter.com/NadirZaatar

1 month ago